logo dgac
Lunes 27 de Septiembre del 2021
Buscar por aerodromo o helipuerto
Ingrese nombre de aeródromo, localidad o designador OACI:

Aeródromo: El Loa (PUB) (SCCF)

Ubicación: Calama, II Región, Chile (22º 30' 00'' S, 68º 54' 11'' W) Ver ubicación en el mapa

Pistas

Orientación Dimensión Pendiente Superficie Resistencia APCH THR RWY PAPI
10/28 3040 x 45 ASPH PCN 49 F/A/W/T
Horas de operación H24
Elevación 2326 m / 7631 ft
Otra Información Adm : D.G.A.C.
Uso : PUB
Ubicado : 6 km SE Calama
TEL : (56)-55 234 2646
email : aro.calama@dgac.gob.cl

Pendiente: RWY 28 2%
Otra información ver AIP-Chile Volumen I AD 3.9-3.1-C

CCCM/FCCV Descargar
andera de Chile
Mapa de El Loa (PUB) (SCCF)

Último METAR

METAR SCCF 270100Z AUTO 30005KT 270V340 9999 NCD 18/M19 Q1028

Último TAF

TAF SCCF 262210Z 2700/2724 26010KT CAVOK TN08/2709Z TX29/2718Z BECMG 2703/2705 11018KT BECMG 2714/2716 10008KT BECMG 2717/2718 27018KT TEMPO 2718/2721 27021G32KT BECMG 2723/2724 26010KT

Últimas fotos cámaras

Imagen aerodromo El Loa (PUB) (SCCF) Este tomada el 04-08-2021 04:29:37 Imagen aerodromo El Loa (PUB) (SCCF) Oeste tomada el 27-09-2021 01:43:03

Último NOTAM

C4177/21 NOTAMN Q)SCFZ/QLAAS/IV/NBO/A/000/999/2230S06854W005 A)SCCF B)2110011700 C)2110011900 E)ALS RWY 28 U/S INSTRUCCIONES: CALAMA TWR 118.7MHZ CALAMA GNDC 121.8MHZ